Inkster, North Dakota
Current Conditions -  °F | °C
As of 4:58 AM on Sunday 23 Nov 2014 (Local Time) from KRDR Reporting Station
Few Clouds Few Clouds  
Wind Chill: 28°   Ceiling: Unl
Heat Index: 34°   Visibility: 10mi
Dew Point: 33°   Wind: 7mph
Humidity: 95%   Direction: 260°W
Pressure: 29.36"   Gusts: NA
Location:  48.15°N, 97.64°W
Report Text: KRDR 231058Z AUTO 26006KT 10SM FEW075 01/00 A2936 RMK AO2 SLP956 T00100003
Loading
Personal Weather Stations






























Interactive Weather Map New forecast layout! Learn more

10-Day Weather Forecast

Advertisements
Track Severe Weather on mobile